LHPR/QGY METAR and TAF weather

Enter ICAO airport designator
Station Type Date Time Source
LHPR METAR 2021/07/26 12:45 UTC NOAA

LHPR 261245Z AUTO 25007KT 190V310 CAVOK 31/18 Q1012 NOSIG


Station Type Date Time Source
LHPR Decoded METAR 2021/07/26 12:45 UTC NOAA

Station name not available
Jul 26, 2021 - 08:45 AM EDT / 2021.07.26 1245 UTC
Wind: from the WSW (250 degrees) at 8 MPH (7 KT) (direction variable):0
Visibility: greater than 7 mile(s):0
Temperature: 87 F (31 C)
Dew Point: 64 F (18 C)
Relative Humidity: 45%
Pressure (altimeter): 29.88 in. Hg (1012 hPa)
ob: LHPR 261245Z AUTO 25007KT 190V310 CAVOK 31/18 Q1012 NOSIG
cycle: 13

Station Type Date Time Source
LHPR TAF UTC NOAA

Error!

Example: see airport list